Time;durP1;ratioP1;P1;durP2;ratioP2;P2;SDS_P1;SDS_P2;PMS_P1;PMS_P2;Temp;Humidity;BMP_temperature;BMP_pressure;BME280_temperature;BME280_humidity;BME280_pressure;Samples;Min_cycle;Max_cycle;Signal;HPM_P1;HPM_P2
2022/05/07 00:00:03;;;;;;;13.80;3.60;;;;;;;;;;10327288;28;20895;-57
2022/05/07 00:05:04;;;;;;;15.05;4.30;;;;;;;;;;10359520;28;20025;-57
2022/05/07 00:10:06;;;;;;;14.32;3.75;;;;;;;;;;10336477;28;20034;-56
2022/05/07 00:15:08;;;;;;;11.48;3.88;;;;;;;;;;10367194;28;20432;-55
2022/05/07 00:20:10;;;;;;;14.18;3.25;;;;;;;;;;10335230;28;20124;-56
2022/05/07 00:25:10;;;;;;;10.27;3.35;;;;;;;;;;10367385;28;20026;-56
2022/05/07 00:30:12;;;;;;;10.80;3.40;;;;;;;;;;10350622;28;20486;-55
2022/05/07 00:35:12;;;;;;;10.55;3.50;;;;;;;;;;10367203;28;20038;-55
2022/05/07 00:40:13;;;;;;;7.00;3.10;;;;;;;;;;10337740;28;20034;-53
2022/05/07 00:45:13;;;;;;;12.45;3.55;;;;;;;;;;10361437;28;20437;-54
2022/05/07 00:55:35;;;;;;;10.90;3.28;;;;;;;;;;10344305;28;20037;-55
2022/05/07 01:00:36;;;;;;;12.25;4.30;;;;;;;;;;10362909;28;20404;-56
2022/05/07 01:05:37;;;;;;;8.13;3.47;;;;;;;;;;10366419;28;20026;-56
2022/05/07 01:10:38;;;;;;;6.25;3.00;;;;;;;;;;10364775;28;20458;-54
2022/05/07 01:15:57;;;;;;;9.38;3.10;;;;;;;;;;10366186;28;20066;-55
2022/05/07 01:20:58;;;;;;;7.00;3.17;;;;;;;;;;10360326;28;20073;-56
2022/05/07 01:26:00;;;;;;;11.48;3.15;;;;;;;;;;10333060;28;20122;-56
2022/05/07 01:31:00;;;;;;;7.57;3.30;;;;;;;;;;10365739;28;20042;-55
2022/05/07 01:36:02;;;;;;;5.18;3.20;;;;;;;;;;10332606;28;20382;-56
2022/05/07 01:41:03;;;;;;;6.82;3.20;;;;;;;;;;10356110;28;20565;-56
2022/05/07 01:48:09;;;;;;;5.57;2.78;;;;;;;;;;10341915;28;20030;-56
2022/05/07 01:51:25;;;;;;;9.55;3.20;;;;;;;;;;10365365;28;20037;-54
2022/05/07 01:56:26;;;;;;;6.50;3.08;;;;;;;;;;10363025;28;20382;-56
2022/05/07 02:01:26;;;;;;;5.82;3.30;;;;;;;;;;10356524;28;20038;-54
2022/05/07 02:06:27;;;;;;;5.25;2.63;;;;;;;;;;10368202;28;20060;-55
2022/05/07 02:11:27;;;;;;;6.50;3.05;;;;;;;;;;10360493;28;20464;-56
2022/05/07 02:16:28;;;;;;;5.72;2.88;;;;;;;;;;10371146;28;20067;-56
2022/05/07 02:21:29;;;;;;;9.23;3.05;;;;;;;;;;10356045;28;20045;-56
2022/05/07 02:26:29;;;;;;;5.55;2.70;;;;;;;;;;10370953;28;20037;-55
2022/05/07 02:31:30;;;;;;;6.70;2.83;;;;;;;;;;10346588;28;20022;-56
2022/05/07 02:36:32;;;;;;;6.82;3.17;;;;;;;;;;10345254;28;20036;-55
2022/05/07 02:46:52;;;;;;;5.90;3.20;;;;;;;;;;10370326;28;20037;-56
2022/05/07 02:51:52;;;;;;;9.80;3.45;;;;;;;;;;10368402;28;20030;-55
2022/05/07 02:56:55;;;;;;;4.88;2.47;;;;;;;;;;10370120;28;20036;-55
2022/05/07 03:01:56;;;;;;;4.75;2.67;;;;;;;;;;10359159;28;20038;-54
2022/05/07 03:06:56;;;;;;;4.50;2.67;;;;;;;;;;10329054;28;20030;-55
2022/05/07 03:11:57;;;;;;;5.13;2.60;;;;;;;;;;10345915;28;20022;-55
2022/05/07 03:16:58;;;;;;;4.60;2.65;;;;;;;;;;10348732;28;20050;-54
2022/05/07 03:21:59;;;;;;;8.10;2.65;;;;;;;;;;10368474;28;20076;-55
2022/05/07 03:27:00;;;;;;;4.90;3.03;;;;;;;;;;10329446;28;20089;-56
2022/05/07 03:32:01;;;;;;;6.70;2.63;;;;;;;;;;10347429;28;20068;-56
2022/05/07 03:37:01;;;;;;;12.63;2.65;;;;;;;;;;10363956;28;20072;-56
2022/05/07 03:42:02;;;;;;;3.92;2.58;;;;;;;;;;10367886;28;20041;-55
2022/05/07 03:47:03;;;;;;;9.25;2.70;;;;;;;;;;10339466;28;20401;-55
2022/05/07 03:57:23;;;;;;;6.95;2.92;;;;;;;;;;10353303;28;20026;-56
2022/05/07 04:02:24;;;;;;;13.45;2.78;;;;;;;;;;10367819;28;20025;-56
2022/05/07 04:07:24;;;;;;;11.85;2.60;;;;;;;;;;10366750;28;20029;-56
2022/05/07 04:12:25;;;;;;;7.32;2.50;;;;;;;;;;10367800;28;20466;-56
2022/05/07 04:17:27;;;;;;;3.55;2.50;;;;;;;;;;10357647;28;20038;-56
2022/05/07 04:22:31;;;;;;;4.43;2.63;;;;;;;;;;10367614;28;20083;-54
2022/05/07 04:27:31;;;;;;;4.68;2.60;;;;;;;;;;10364720;28;20065;-55
2022/05/07 04:32:32;;;;;;;3.88;2.55;;;;;;;;;;10367389;28;20029;-55
2022/05/07 04:37:32;;;;;;;6.28;2.33;;;;;;;;;;10366515;28;20111;-56
2022/05/07 04:42:33;;;;;;;2.53;2.25;;;;;;;;;;10341410;28;20039;-55
2022/05/07 04:47:34;;;;;;;4.18;2.47;;;;;;;;;;10345531;28;20037;-56
2022/05/07 04:52:34;;;;;;;4.70;2.33;;;;;;;;;;10347811;28;20034;-56
2022/05/07 04:57:36;;;;;;;7.60;2.45;;;;;;;;;;10334306;28;20037;-57
2022/05/07 05:02:37;;;;;;;5.45;2.42;;;;;;;;;;10348005;28;20073;-57
2022/05/07 05:07:37;;;;;;;5.43;2.30;;;;;;;;;;10333891;28;20023;-54
2022/05/07 05:12:38;;;;;;;3.65;2.40;;;;;;;;;;10360859;28;20038;-56
2022/05/07 05:17:39;;;;;;;10.95;2.40;;;;;;;;;;10373564;28;20673;-56
2022/05/07 05:22:48;;;;;;;6.40;2.00;;;;;;;;;;10361726;28;20034;-53
2022/05/07 05:27:49;;;;;;;4.43;2.38;;;;;;;;;;10333100;28;20033;-55
2022/05/07 05:32:50;;;;;;;5.55;2.22;;;;;;;;;;10352607;28;20045;-54
2022/05/07 05:37:50;;;;;;;2.72;2.10;;;;;;;;;;10373190;28;20026;-55
2022/05/07 05:42:51;;;;;;;3.20;2.10;;;;;;;;;;10361426;28;20121;-55
2022/05/07 05:47:51;;;;;;;3.47;2.55;;;;;;;;;;10358869;28;20042;-55
2022/05/07 05:52:52;;;;;;;6.10;2.55;;;;;;;;;;10366816;28;20092;-55
2022/05/07 05:57:53;;;;;;;4.70;2.53;;;;;;;;;;10336912;28;20045;-55
2022/05/07 06:02:53;;;;;;;5.95;2.10;;;;;;;;;;10371450;28;20485;-55
2022/05/07 06:07:54;;;;;;;3.55;2.28;;;;;;;;;;10404839;28;20219;-55
2022/05/07 06:12:55;;;;;;;2.78;1.90;;;;;;;;;;10363897;28;20038;-55
2022/05/07 06:17:56;;;;;;;4.35;2.00;;;;;;;;;;10362103;28;20140;-56
2022/05/07 06:23:00;;;;;;;4.30;2.78;;;;;;;;;;10371111;28;20034;-54
2022/05/07 06:28:01;;;;;;;2.92;2.17;;;;;;;;;;10368721;28;20030;-55
2022/05/07 06:33:02;;;;;;;13.38;2.53;;;;;;;;;;10348554;28;20050;-54
2022/05/07 06:38:03;;;;;;;4.97;2.40;;;;;;;;;;10342525;28;20505;-55
2022/05/07 06:43:05;;;;;;;11.38;2.50;;;;;;;;;;10370246;28;20130;-56
2022/05/07 06:48:08;;;;;;;15.32;3.15;;;;;;;;;;10340463;28;20026;-56
2022/05/07 06:53:09;;;;;;;11.27;2.45;;;;;;;;;;10361555;28;20095;-56
2022/05/07 06:58:10;;;;;;;17.20;3.13;;;;;;;;;;10350214;28;20473;-55
2022/05/07 07:03:10;;;;;;;4.50;1.88;;;;;;;;;;10368097;28;20363;-55
2022/05/07 07:08:12;;;;;;;19.08;3.13;;;;;;;;;;10368954;28;20045;-57
2022/05/07 07:13:14;;;;;;;12.73;3.15;;;;;;;;;;10345915;28;20375;-55
2022/05/07 07:18:14;;;;;;;17.55;5.85;;;;;;;;;;10354157;28;20046;-55
2022/05/07 07:23:15;;;;;;;9.27;7.25;;;;;;;;;;10351411;28;20412;-55
2022/05/07 07:28:16;;;;;;;15.43;9.32;;;;;;;;;;10354240;28;20069;-50
2022/05/07 07:33:17;;;;;;;9.57;8.57;;;;;;;;;;10334918;28;20058;-53
2022/05/07 07:38:17;;;;;;;10.15;8.15;;;;;;;;;;10350339;28;20501;-48
2022/05/07 07:43:19;;;;;;;15.02;7.95;;;;;;;;;;10328077;28;20019;-49
2022/05/07 07:48:20;;;;;;;13.35;8.15;;;;;;;;;;10332659;28;20028;-52
2022/05/07 07:53:24;;;;;;;14.40;7.28;;;;;;;;;;10362138;28;20048;-56
2022/05/07 07:58:25;;;;;;;21.25;6.88;;;;;;;;;;10343261;28;20065;-57
2022/05/07 08:03:26;;;;;;;27.33;7.38;;;;;;;;;;10336481;28;20034;-57
2022/05/07 08:13:47;;;;;;;17.02;7.30;;;;;;;;;;10368282;28;20037;-55
2022/05/07 08:18:50;;;;;;;15.80;6.10;;;;;;;;;;10366703;28;20042;-56
2022/05/07 08:23:51;;;;;;;13.18;5.82;;;;;;;;;;10356920;28;20034;-58
2022/05/07 08:28:52;;;;;;;12.40;5.65;;;;;;;;;;10358995;28;20038;-54
2022/05/07 08:33:54;;;;;;;21.45;6.22;;;;;;;;;;10370755;28;20022;-58
2022/05/07 08:38:55;;;;;;;19.80;5.53;;;;;;;;;;10371839;28;20030;-57
2022/05/07 08:43:55;;;;;;;19.80;5.97;;;;;;;;;;10374366;28;20034;-57
2022/05/07 08:48:56;;;;;;;16.70;5.20;;;;;;;;;;10345052;28;20481;-57
2022/05/07 08:53:57;;;;;;;12.63;5.45;;;;;;;;;;10335828;28;20105;-55
2022/05/07 08:58:57;;;;;;;13.75;5.30;;;;;;;;;;10363524;28;20117;-58
2022/05/07 09:04:11;;;;;;;9.45;4.75;;;;;;;;;;10372235;28;20036;-58
2022/05/07 09:09:12;;;;;;;11.35;4.75;;;;;;;;;;10356396;28;20054;-58
2022/05/07 09:14:14;;;;;;;14.13;5.03;;;;;;;;;;10335614;28;20027;-58
2022/05/07 09:19:25;;;;;;;10.40;4.55;;;;;;;;;;10346351;28;20057;-57
2022/05/07 09:24:26;;;;;;;21.73;4.72;;;;;;;;;;10359674;28;20068;-58
2022/05/07 09:29:28;;;;;;;7.35;4.28;;;;;;;;;;10358837;28;20117;-57
2022/05/07 09:40:06;;;;;;;7.82;4.03;;;;;;;;;;10293490;28;20398;-55
2022/05/07 09:45:07;;;;;;;;;;;;;;;;;;10348887;28;20033;-57
2022/05/07 09:50:20;;;;;;;10.63;3.85;;;;;;;;;;10384947;28;21741;-57
2022/05/07 10:01:11;;;;;;;6.55;3.50;;;;;;;;;;10384319;28;20041;-55
2022/05/07 10:06:42;;;;;;;8.77;3.90;;;;;;;;;;10363533;28;20045;-56
2022/05/07 10:11:44;;;;;;;8.07;4.03;;;;;;;;;;10364279;28;20041;-54
2022/05/07 10:16:55;;;;;;;9.20;3.78;;;;;;;;;;10354599;28;20394;-57
2022/05/07 10:21:55;;;;;;;7.22;3.60;;;;;;;;;;10339958;28;20113;-58
2022/05/07 10:26:56;;;;;;;5.55;3.03;;;;;;;;;;10331947;28;20662;-58
2022/05/07 10:32:04;;;;;;;6.05;3.28;;;;;;;;;;10336135;28;20121;-57
2022/05/07 10:37:06;;;;;;;8.63;3.08;;;;;;;;;;10327952;28;20515;-57
2022/05/07 10:42:18;;;;;;;4.38;2.63;;;;;;;;;;10334574;28;20180;-58
2022/05/07 10:47:19;;;;;;;6.10;2.95;;;;;;;;;;10330256;28;20053;-58
2022/05/07 10:52:34;;;;;;;6.53;3.17;;;;;;;;;;10354343;28;20069;-56
2022/05/07 10:57:47;;;;;;;10.98;3.00;;;;;;;;;;10339240;28;20389;-57
2022/05/07 11:02:54;;;;;;;5.88;3.30;;;;;;;;;;10364712;28;20135;-56
2022/05/07 11:07:59;;;;;;;7.17;2.83;;;;;;;;;;10368207;28;20022;-58
2022/05/07 11:13:13;;;;;;;8.77;3.20;;;;;;;;;;10353722;28;20482;-53
2022/05/07 11:18:15;;;;;;;5.22;2.45;;;;;;;;;;10330174;28;20057;-55
2022/05/07 11:23:15;;;;;;;4.97;3.00;;;;;;;;;;10362071;28;20073;-57
2022/05/07 11:28:16;;;;;;;5.57;3.10;;;;;;;;;;10332363;28;20535;-57
2022/05/07 11:33:24;;;;;;;5.78;2.85;;;;;;;;;;10331900;28;20505;-56
2022/05/07 11:38:24;;;;;;;7.65;2.97;;;;;;;;;;10346807;28;20022;-55
2022/05/07 11:48:45;;;;;;;7.10;2.88;;;;;;;;;;10354771;28;20486;-58
2022/05/07 11:53:45;;;;;;;8.45;2.90;;;;;;;;;;10358260;28;20030;-57
2022/05/07 11:58:49;;;;;;;7.43;3.00;;;;;;;;;;10344947;28;20076;-55
2022/05/07 12:03:51;;;;;;;7.57;2.92;;;;;;;;;;10366458;28;20444;-57
2022/05/07 12:08:52;;;;;;;5.05;2.90;;;;;;;;;;10346137;28;20030;-57
2022/05/07 12:13:54;;;;;;;6.97;3.10;;;;;;;;;;10351975;28;20030;-59
2022/05/07 12:18:55;;;;;;;4.25;2.55;;;;;;;;;;10350691;28;20049;-59
2022/05/07 12:34:34;;;;;;;6.95;2.97;;;;;;;;;;10375452;28;20565;-59
2022/05/07 12:39:34;;;;;;;5.20;2.85;;;;;;;;;;10362590;28;20033;-59
2022/05/07 12:44:35;;;;;;;7.72;2.85;;;;;;;;;;10358754;28;20037;-58
2022/05/07 12:49:36;;;;;;;5.30;2.75;;;;;;;;;;10377716;28;20138;-58
2022/05/07 12:54:37;;;;;;;5.43;2.72;;;;;;;;;;10354535;28;20062;-58
2022/05/07 12:59:38;;;;;;;6.05;2.45;;;;;;;;;;10336102;28;20125;-58
2022/05/07 13:04:39;;;;;;;4.97;3.05;;;;;;;;;;10333084;28;20655;-58
2022/05/07 13:09:39;;;;;;;4.80;2.70;;;;;;;;;;10359781;28;20038;-56
2022/05/07 13:14:40;;;;;;;6.20;3.22;;;;;;;;;;10368515;28;20033;-57
2022/05/07 13:19:42;;;;;;;6.15;2.70;;;;;;;;;;10372103;28;20079;-56
2022/05/07 13:24:43;;;;;;;4.68;2.40;;;;;;;;;;10371183;28;20033;-57
2022/05/07 13:29:43;;;;;;;4.93;2.50;;;;;;;;;;10368400;28;20030;-54
2022/05/07 13:34:44;;;;;;;4.90;2.85;;;;;;;;;;10372187;28;20049;-57
2022/05/07 13:39:44;;;;;;;8.85;2.88;;;;;;;;;;10370165;28;20037;-52
2022/05/07 13:44:45;;;;;;;8.48;2.80;;;;;;;;;;10373618;28;20037;-56
2022/05/07 13:49:46;;;;;;;6.03;2.50;;;;;;;;;;10372018;28;20033;-57
2022/05/07 13:54:46;;;;;;;5.40;2.85;;;;;;;;;;10370799;28;20029;-57
2022/05/07 13:59:47;;;;;;;6.18;2.63;;;;;;;;;;10368842;28;20068;-57
2022/05/07 14:04:49;;;;;;;2.92;2.38;;;;;;;;;;10367063;28;20022;-56
2022/05/07 14:09:50;;;;;;;4.80;2.65;;;;;;;;;;10369168;28;20117;-57
2022/05/07 14:14:51;;;;;;;3.15;2.17;;;;;;;;;;10370315;28;20465;-58
2022/05/07 14:19:53;;;;;;;2.90;2.50;;;;;;;;;;10369543;28;20402;-53
2022/05/07 14:24:54;;;;;;;3.10;2.30;;;;;;;;;;10389117;28;20041;-58
2022/05/07 14:29:56;;;;;;;3.88;2.50;;;;;;;;;;10383732;28;20061;-55
2022/05/07 14:34:56;;;;;;;4.13;2.60;;;;;;;;;;10369676;28;20445;-56
2022/05/07 14:39:57;;;;;;;3.88;2.30;;;;;;;;;;10369344;28;20030;-58
2022/05/07 14:44:57;;;;;;;4.00;2.30;;;;;;;;;;10368428;28;20030;-58
2022/05/07 14:49:58;;;;;;;5.25;2.60;;;;;;;;;;10370569;28;20029;-58
2022/05/07 14:54:59;;;;;;;5.05;1.95;;;;;;;;;;10367308;28;20038;-59
2022/05/07 14:59:59;;;;;;;4.30;2.40;;;;;;;;;;10370187;28;20033;-58
2022/05/07 15:05:00;;;;;;;9.60;2.67;;;;;;;;;;10367752;28;20053;-58
2022/05/07 15:15:21;;;;;;;7.70;2.38;;;;;;;;;;10366696;28;20073;-58
2022/05/07 15:20:21;;;;;;;4.13;2.30;;;;;;;;;;10366967;28;20029;-56
2022/05/07 15:25:22;;;;;;;9.45;2.80;;;;;;;;;;10360984;28;20100;-58
2022/05/07 15:30:24;;;;;;;4.15;2.35;;;;;;;;;;10362240;28;20037;-56
2022/05/07 15:40:45;;;;;;;4.55;2.30;;;;;;;;;;10366657;28;20045;-58
2022/05/07 15:45:49;;;;;;;3.92;2.20;;;;;;;;;;10366647;28;20044;-57
2022/05/07 15:50:57;;;;;;;4.18;2.30;;;;;;;;;;10373961;28;20180;-57
2022/05/07 15:55:58;;;;;;;2.47;1.90;;;;;;;;;;10362634;28;20037;-57
2022/05/07 16:00:59;;;;;;;2.35;2.00;;;;;;;;;;10365051;28;20041;-58
2022/05/07 16:05:59;;;;;;;4.03;2.17;;;;;;;;;;10365243;28;20026;-58
2022/05/07 16:11:00;;;;;;;3.33;2.50;;;;;;;;;;10355959;28;20030;-58
2022/05/07 16:16:01;;;;;;;4.60;2.63;;;;;;;;;;10363887;28;20053;-59
2022/05/07 16:21:03;;;;;;;6.10;2.33;;;;;;;;;;10361148;28;20041;-59
2022/05/07 16:26:04;;;;;;;4.38;2.08;;;;;;;;;;10362612;28;20557;-59
2022/05/07 16:31:04;;;;;;;3.75;2.28;;;;;;;;;;10365751;28;20026;-58
2022/05/07 16:36:06;;;;;;;3.63;2.10;;;;;;;;;;10366201;28;20033;-58
2022/05/07 16:41:07;;;;;;;7.25;2.40;;;;;;;;;;10366816;28;20038;-58
2022/05/07 16:46:07;;;;;;;2.70;2.50;;;;;;;;;;10363933;28;20026;-58
2022/05/07 16:51:11;;;;;;;4.40;2.88;;;;;;;;;;10368418;28;20105;-57
2022/05/07 16:56:12;;;;;;;3.70;2.38;;;;;;;;;;10369060;28;20034;-58
2022/05/07 17:01:13;;;;;;;3.38;2.58;;;;;;;;;;10372754;28;20035;-57
2022/05/07 17:06:13;;;;;;;4.63;2.78;;;;;;;;;;10345151;28;20026;-58
2022/05/07 17:11:14;;;;;;;3.75;2.40;;;;;;;;;;10354171;28;20041;-55
2022/05/07 17:16:14;;;;;;;4.00;2.45;;;;;;;;;;10363510;28;20088;-58
2022/05/07 17:21:15;;;;;;;3.83;2.95;;;;;;;;;;10356291;28;20035;-57
2022/05/07 17:26:16;;;;;;;4.38;3.00;;;;;;;;;;10371277;28;20029;-58
2022/05/07 17:31:17;;;;;;;5.72;3.47;;;;;;;;;;10371197;28;20033;-59
2022/05/07 17:36:17;;;;;;;8.40;4.38;;;;;;;;;;10366257;28;20038;-58
2022/05/07 17:41:19;;;;;;;14.07;5.28;;;;;;;;;;10368450;28;20033;-55
2022/05/07 17:46:19;;;;;;;12.00;4.60;;;;;;;;;;10365266;28;20041;-58
2022/05/07 17:51:20;;;;;;;20.45;6.63;;;;;;;;;;10347223;28;20033;-57
2022/05/07 17:56:21;;;;;;;16.60;7.57;;;;;;;;;;10329945;28;20026;-57
2022/05/07 18:01:21;;;;;;;14.68;6.90;;;;;;;;;;10356080;28;20112;-57
2022/05/07 18:06:23;;;;;;;19.83;7.05;;;;;;;;;;10358539;28;20132;-59
2022/05/07 18:11:26;;;;;;;15.15;6.53;;;;;;;;;;10363159;28;20503;-58
2022/05/07 18:16:27;;;;;;;10.43;6.03;;;;;;;;;;10365292;28;20046;-57
2022/05/07 18:21:27;;;;;;;13.13;5.95;;;;;;;;;;10358106;28;20409;-58
2022/05/07 18:26:28;;;;;;;11.65;5.20;;;;;;;;;;10362562;28;20030;-58
2022/05/07 18:31:29;;;;;;;12.02;5.22;;;;;;;;;;10367243;28;20026;-56
2022/05/07 18:47:09;;;;;;;8.05;4.68;;;;;;;;;;10366205;28;20041;-58
2022/05/07 18:52:12;;;;;;;11.35;5.10;;;;;;;;;;10351786;28;20545;-58
2022/05/07 19:02:34;;;;;;;5.90;4.00;;;;;;;;;;10354070;28;20038;-58
2022/05/07 19:07:34;;;;;;;12.38;4.78;;;;;;;;;;10366949;28;20026;-54
2022/05/07 19:12:35;;;;;;;5.15;3.70;;;;;;;;;;10358651;28;20478;-56
2022/05/07 19:17:36;;;;;;;8.80;3.90;;;;;;;;;;10342889;28;20099;-56
2022/05/07 19:22:36;;;;;;;10.57;4.13;;;;;;;;;;10334318;28;20034;-54
2022/05/07 19:27:37;;;;;;;6.88;3.88;;;;;;;;;;10339126;28;20026;-52
2022/05/07 19:32:38;;;;;;;5.90;3.47;;;;;;;;;;10332238;28;20041;-57
2022/05/07 19:37:40;;;;;;;4.38;3.28;;;;;;;;;;10334190;28;20032;-55
2022/05/07 19:42:42;;;;;;;7.53;3.80;;;;;;;;;;10361554;28;20080;-56
2022/05/07 19:47:43;;;;;;;5.35;3.28;;;;;;;;;;10355937;28;20053;-54
2022/05/07 19:52:45;;;;;;;6.47;3.80;;;;;;;;;;10352366;28;20034;-54
2022/05/07 19:57:46;;;;;;;7.72;3.40;;;;;;;;;;10365415;28;20034;-57
2022/05/07 20:02:46;;;;;;;7.07;3.40;;;;;;;;;;10360146;28;20437;-57
2022/05/07 20:07:47;;;;;;;4.55;3.35;;;;;;;;;;10355173;28;20022;-57
2022/05/07 20:12:49;;;;;;;5.45;3.80;;;;;;;;;;10369959;28;20025;-57
2022/05/07 20:17:49;;;;;;;8.50;3.58;;;;;;;;;;10373867;28;20053;-57
2022/05/07 20:22:56;;;;;;;5.38;3.35;;;;;;;;;;10370577;28;20370;-57
2022/05/07 20:27:57;;;;;;;10.30;3.70;;;;;;;;;;10371318;28;20604;-57
2022/05/07 20:32:58;;;;;;;4.40;3.17;;;;;;;;;;10380191;28;20029;-57
2022/05/07 20:38:01;;;;;;;12.73;3.72;;;;;;;;;;10379991;28;20056;-57
2022/05/07 20:46:25;;;;;;;6.07;3.05;;;;;;;;;;10347615;28;20121;-57
2022/05/07 20:48:22;;;;;;;19.88;4.20;;;;;;;;;;10339867;28;20556;-56
2022/05/07 20:53:23;;;;;;;5.50;3.50;;;;;;;;;;10338264;28;20092;-57
2022/05/07 20:58:23;;;;;;;11.32;3.50;;;;;;;;;;10372912;28;20033;-53
2022/05/07 21:03:24;;;;;;;15.75;3.90;;;;;;;;;;10380435;28;20040;-50
2022/05/07 21:08:24;;;;;;;12.82;3.90;;;;;;;;;;10380184;28;20036;-54
2022/05/07 21:13:25;;;;;;;13.50;4.63;;;;;;;;;;10363171;28;20026;-56
2022/05/07 21:18:26;;;;;;;9.68;3.67;;;;;;;;;;10341762;28;20037;-52
2022/05/07 21:23:27;;;;;;;11.23;4.65;;;;;;;;;;10338287;28;20053;-52
2022/05/07 21:28:28;;;;;;;9.30;3.95;;;;;;;;;;10340020;28;20060;-50
2022/05/07 21:33:30;;;;;;;13.77;4.05;;;;;;;;;;10336639;28;20398;-51
2022/05/07 21:38:30;;;;;;;14.32;4.43;;;;;;;;;;10333985;28;20042;-51
2022/05/07 21:43:33;;;;;;;9.27;3.55;;;;;;;;;;10373206;28;20033;-50
2022/05/07 21:48:35;;;;;;;10.85;3.75;;;;;;;;;;10372372;28;20061;-52
2022/05/07 21:53:35;;;;;;;8.95;3.55;;;;;;;;;;10372750;28;20029;-54
2022/05/07 21:58:37;;;;;;;7.65;3.97;;;;;;;;;;10372690;28;20021;-51
2022/05/07 22:03:39;;;;;;;6.68;3.22;;;;;;;;;;10372213;28;20029;-50
2022/05/07 22:08:39;;;;;;;12.52;3.60;;;;;;;;;;10370969;28;20389;-51
2022/05/07 22:13:40;;;;;;;13.68;3.33;;;;;;;;;;10371658;28;20153;-50
2022/05/07 22:18:41;;;;;;;8.18;3.85;;;;;;;;;;10371180;28;20057;-51
2022/05/07 22:23:41;;;;;;;7.38;3.70;;;;;;;;;;10371529;28;20041;-50
2022/05/07 22:28:42;;;;;;;6.15;3.28;;;;;;;;;;10371103;28;20500;-50
2022/05/07 22:33:43;;;;;;;5.65;3.53;;;;;;;;;;10370786;28;20548;-52
2022/05/07 22:38:43;;;;;;;7.07;3.67;;;;;;;;;;10370665;28;20374;-59
2022/05/07 22:43:44;;;;;;;8.35;3.60;;;;;;;;;;10370335;28;20443;-57
2022/05/07 22:48:44;;;;;;;6.55;3.45;;;;;;;;;;10366318;28;20037;-50
2022/05/07 22:53:46;;;;;;;8.45;3.78;;;;;;;;;;10366989;28;20033;-56
2022/05/07 22:58:46;;;;;;;4.70;3.03;;;;;;;;;;10370089;28;20045;-55
2022/05/07 23:03:47;;;;;;;10.45;3.30;;;;;;;;;;10398651;28;20052;-54
2022/05/07 23:08:47;;;;;;;11.02;3.75;;;;;;;;;;10376357;28;20041;-52
2022/05/07 23:13:48;;;;;;;4.57;3.28;;;;;;;;;;10368033;28;20391;-57
2022/05/07 23:18:48;;;;;;;7.68;3.75;;;;;;;;;;10368807;28;20444;-55
2022/05/07 23:23:49;;;;;;;6.57;3.63;;;;;;;;;;10367028;28;20673;-57
2022/05/07 23:28:50;;;;;;;8.52;3.58;;;;;;;;;;10383808;28;20456;-54
2022/05/07 23:33:50;;;;;;;7.72;3.17;;;;;;;;;;10368403;28;20042;-51
2022/05/07 23:38:51;;;;;;;4.82;3.28;;;;;;;;;;10367615;28;20046;-56
2022/05/07 23:43:51;;;;;;;5.75;3.67;;;;;;;;;;10368429;28;20044;-48
2022/05/07 23:48:53;;;;;;;6.82;3.30;;;;;;;;;;10367839;28;20026;-49
2022/05/07 23:53:53;;;;;;;6.15;3.40;;;;;;;;;;10366530;28;20030;-57
2022/05/07 23:58:55;;;;;;;6.97;2.90;;;;;;;;;;10366010;28;20041;-59
